sensor_id;sensor_type;location;lat;lon;timestamp;P1;durP1;ratioP1;P2;durP2;ratioP2
6902;SDS011;20232;49.408;8.702;2023-03-23T05:00:59;4.60;;;2.50;;
6902;SDS011;20232;49.408;8.702;2023-03-23T05:03:25;2.90;;;2.27;;
6902;SDS011;20232;49.408;8.702;2023-03-23T05:05:52;2.47;;;2.27;;
6902;SDS011;20232;49.408;8.702;2023-03-23T05:08:19;3.80;;;2.57;;
6902;SDS011;20232;49.408;8.702;2023-03-23T05:13:36;2.83;;;2.30;;
6902;SDS011;20232;49.408;8.702;2023-03-23T05:16:03;2.57;;;2.23;;
6902;SDS011;20232;49.408;8.702;2023-03-23T05:18:29;2.83;;;2.47;;
6902;SDS011;20232;49.408;8.702;2023-03-23T05:20:59;5.37;;;2.80;;
6902;SDS011;20232;49.408;8.702;2023-03-23T05:23:25;2.90;;;2.60;;
6902;SDS011;20232;49.408;8.702;2023-03-23T05:25:54;4.73;;;2.77;;
6902;SDS011;20232;49.408;8.702;2023-03-23T05:28:20;2.87;;;2.50;;
6902;SDS011;20232;49.408;8.702;2023-03-23T05:30:47;4.67;;;3.00;;
6902;SDS011;20232;49.408;8.702;2023-03-23T05:33:13;3.83;;;2.50;;
6902;SDS011;20232;49.408;8.702;2023-03-23T05:35:38;3.77;;;2.50;;
6902;SDS011;20232;49.408;8.702;2023-03-23T05:38:04;3.67;;;2.53;;
6902;SDS011;20232;49.408;8.702;2023-03-23T05:40:30;2.90;;;2.70;;
6902;SDS011;20232;49.408;8.702;2023-03-23T05:42:56;3.10;;;2.80;;
6902;SDS011;20232;49.408;8.702;2023-03-23T05:45:24;2.97;;;2.60;;
6902;SDS011;20232;49.408;8.702;2023-03-23T05:47:50;2.90;;;2.60;;
6902;SDS011;20232;49.408;8.702;2023-03-23T05:50:16;3.03;;;2.70;;
6902;SDS011;20232;49.408;8.702;2023-03-23T05:52:42;3.60;;;2.40;;
6902;SDS011;20232;49.408;8.702;2023-03-23T05:55:08;2.87;;;2.50;;
6902;SDS011;20232;49.408;8.702;2023-03-23T05:57:35;3.13;;;2.77;;
6902;SDS011;20232;49.408;8.702;2023-03-23T06:00:01;2.70;;;2.50;;
6902;SDS011;20232;49.408;8.702;2023-03-23T06:02:39;2.80;;;2.60;;
6902;SDS011;20232;49.408;8.702;2023-03-23T06:05:08;3.00;;;2.60;;
6902;SDS011;20232;49.408;8.702;2023-03-23T06:07:34;3.33;;;2.37;;
6902;SDS011;20232;49.408;8.702;2023-03-23T06:10:00;2.70;;;2.50;;
6902;SDS011;20232;49.408;8.702;2023-03-23T06:12:26;2.87;;;2.30;;
6902;SDS011;20232;49.408;8.702;2023-03-23T06:14:52;4.23;;;2.60;;
6902;SDS011;20232;49.408;8.702;2023-03-23T06:17:18;2.63;;;2.30;;
6902;SDS011;20232;49.408;8.702;2023-03-23T06:19:44;2.30;;;2.03;;
6902;SDS011;20232;49.408;8.702;2023-03-23T06:22:14;2.47;;;2.27;;
6902;SDS011;20232;49.408;8.702;2023-03-23T06:24:40;2.20;;;2.10;;
6902;SDS011;20232;49.408;8.702;2023-03-23T06:27:06;3.47;;;2.30;;
6902;SDS011;20232;49.408;8.702;2023-03-23T06:29:33;3.13;;;1.90;;
6902;SDS011;20232;49.408;8.702;2023-03-23T06:32:00;1.87;;;1.77;;
6902;SDS011;20232;49.408;8.702;2023-03-23T06:34:27;2.33;;;2.00;;
6902;SDS011;20232;49.408;8.702;2023-03-23T06:36:54;2.00;;;1.90;;
6902;SDS011;20232;49.408;8.702;2023-03-23T06:39:20;3.30;;;1.93;;
6902;SDS011;20232;49.408;8.702;2023-03-23T06:41:47;4.23;;;2.60;;
6902;SDS011;20232;49.408;8.702;2023-03-23T06:44:12;2.43;;;1.77;;
6902;SDS011;20232;49.408;8.702;2023-03-23T06:46:38;2.83;;;2.30;;
6902;SDS011;20232;49.408;8.702;2023-03-23T06:49:05;5.00;;;2.00;;
6902;SDS011;20232;49.408;8.702;2023-03-23T06:51:31;2.20;;;1.67;;
6902;SDS011;20232;49.408;8.702;2023-03-23T06:53:56;2.23;;;1.90;;
6902;SDS011;20232;49.408;8.702;2023-03-23T06:56:22;2.60;;;1.90;;
6902;SDS011;20232;49.408;8.702;2023-03-23T06:58:48;2.70;;;2.00;;
6902;SDS011;20232;49.408;8.702;2023-03-23T07:01:14;3.83;;;1.73;;
6902;SDS011;20232;49.408;8.702;2023-03-23T07:03:40;2.07;;;1.87;;
6902;SDS011;20232;49.408;8.702;2023-03-23T07:06:08;2.23;;;1.90;;
6902;SDS011;20232;49.408;8.702;2023-03-23T07:08:34;3.17;;;2.00;;
6902;SDS011;20232;49.408;8.702;2023-03-23T07:11:00;5.00;;;2.00;;
6902;SDS011;20232;49.408;8.702;2023-03-23T07:13:26;5.10;;;2.10;;
6902;SDS011;20232;49.408;8.702;2023-03-23T07:15:52;3.77;;;2.07;;
6902;SDS011;20232;49.408;8.702;2023-03-23T07:18:18;3.80;;;2.03;;
6902;SDS011;20232;49.408;8.702;2023-03-23T07:20:48;5.87;;;2.30;;
6902;SDS011;20232;49.408;8.702;2023-03-23T07:23:15;3.77;;;2.30;;
6902;SDS011;20232;49.408;8.702;2023-03-23T07:25:41;2.23;;;2.03;;
6902;SDS011;20232;49.408;8.702;2023-03-23T07:28:08;4.53;;;2.10;;
6902;SDS011;20232;49.408;8.702;2023-03-23T07:30:34;2.80;;;2.37;;
6902;SDS011;20232;49.408;8.702;2023-03-23T07:33:03;3.17;;;2.63;;
6902;SDS011;20232;49.408;8.702;2023-03-23T07:35:33;5.00;;;2.63;;
6902;SDS011;20232;49.408;8.702;2023-03-23T07:37:59;2.70;;;2.17;;
6902;SDS011;20232;49.408;8.702;2023-03-23T07:40:25;4.40;;;2.50;;
6902;SDS011;20232;49.408;8.702;2023-03-23T07:42:52;2.47;;;2.27;;
6902;SDS011;20232;49.408;8.702;2023-03-23T07:45:20;2.80;;;2.40;;
6902;SDS011;20232;49.408;8.702;2023-03-23T07:47:46;3.20;;;2.60;;
6902;SDS011;20232;49.408;8.702;2023-03-23T07:50:12;3.33;;;2.27;;
6902;SDS011;20232;49.408;8.702;2023-03-23T07:52:38;2.80;;;2.10;;
6902;SDS011;20232;49.408;8.702;2023-03-23T07:55:06;5.33;;;2.40;;
6902;SDS011;20232;49.408;8.702;2023-03-23T07:57:34;5.67;;;2.70;;
6902;SDS011;20232;49.408;8.702;2023-03-23T07:59:59;3.10;;;2.00;;
6902;SDS011;20232;49.408;8.702;2023-03-23T08:02:25;3.77;;;2.10;;
6902;SDS011;20232;49.408;8.702;2023-03-23T08:04:51;2.87;;;1.77;;
6902;SDS011;20232;49.408;8.702;2023-03-23T08:07:18;3.80;;;1.80;;
6902;SDS011;20232;49.408;8.702;2023-03-23T08:09:45;2.13;;;1.80;;
6902;SDS011;20232;49.408;8.702;2023-03-23T08:12:12;2.47;;;1.70;;
6902;SDS011;20232;49.408;8.702;2023-03-23T08:14:38;3.10;;;1.70;;
6902;SDS011;20232;49.408;8.702;2023-03-23T08:17:05;2.50;;;1.77;;
6902;SDS011;20232;49.408;8.702;2023-03-23T08:19:30;1.90;;;1.60;;
6902;SDS011;20232;49.408;8.702;2023-03-23T08:22:01;2.00;;;1.70;;
6902;SDS011;20232;49.408;8.702;2023-03-23T08:24:28;3.00;;;1.90;;
6902;SDS011;20232;49.408;8.702;2023-03-23T08:26:53;2.90;;;1.70;;
6902;SDS011;20232;49.408;8.702;2023-03-23T08:29:19;1.90;;;1.70;;
6902;SDS011;20232;49.408;8.702;2023-03-23T08:31:44;5.20;;;1.80;;
6902;SDS011;20232;49.408;8.702;2023-03-23T08:34:10;2.03;;;1.83;;
6902;SDS011;20232;49.408;8.702;2023-03-23T08:36:36;2.27;;;1.80;;
6902;SDS011;20232;49.408;8.702;2023-03-23T08:39:02;2.40;;;2.10;;
6902;SDS011;20232;49.408;8.702;2023-03-23T08:41:30;2.37;;;1.90;;
6902;SDS011;20232;49.408;8.702;2023-03-23T08:43:56;3.43;;;1.80;;
6902;SDS011;20232;49.408;8.702;2023-03-23T08:46:22;2.03;;;1.70;;
6902;SDS011;20232;49.408;8.702;2023-03-23T08:48:48;3.00;;;2.00;;
6902;SDS011;20232;49.408;8.702;2023-03-23T08:51:13;2.60;;;1.80;;
6902;SDS011;20232;49.408;8.702;2023-03-23T08:53:40;5.77;;;1.90;;
6902;SDS011;20232;49.408;8.702;2023-03-23T08:56:08;2.70;;;1.90;;
6902;SDS011;20232;49.408;8.702;2023-03-23T08:58:36;2.97;;;1.80;;
6902;SDS011;20232;49.408;8.702;2023-03-23T09:01:03;1.70;;;1.60;;
6902;SDS011;20232;49.408;8.702;2023-03-23T09:03:31;2.20;;;1.90;;
6902;SDS011;20232;49.408;8.702;2023-03-23T09:05:58;2.07;;;1.70;;
6902;SDS011;20232;49.408;8.702;2023-03-23T09:08:25;3.60;;;1.90;;
6902;SDS011;20232;49.408;8.702;2023-03-23T09:10:53;3.30;;;2.00;;
6902;SDS011;20232;49.408;8.702;2023-03-23T09:13:25;3.67;;;1.70;;
6902;SDS011;20232;49.408;8.702;2023-03-23T09:15:51;2.03;;;1.93;;
6902;SDS011;20232;49.408;8.702;2023-03-23T09:18:17;5.83;;;2.00;;
6902;SDS011;20232;49.408;8.702;2023-03-23T09:20:43;1.97;;;1.77;;
6902;SDS011;20232;49.408;8.702;2023-03-23T09:23:09;4.20;;;2.00;;
6902;SDS011;20232;49.408;8.702;2023-03-23T09:25:35;2.53;;;1.90;;
6902;SDS011;20232;49.408;8.702;2023-03-23T09:28:01;2.53;;;2.03;;
6902;SDS011;20232;49.408;8.702;2023-03-23T09:30:27;2.27;;;2.07;;
6902;SDS011;20232;49.408;8.702;2023-03-23T09:32:55;3.63;;;2.00;;
6902;SDS011;20232;49.408;8.702;2023-03-23T09:35:22;2.67;;;2.20;;
6902;SDS011;20232;49.408;8.702;2023-03-23T09:37:49;1.87;;;1.70;;
6902;SDS011;20232;49.408;8.702;2023-03-23T09:43:19;3.60;;;2.27;;
6902;SDS011;20232;49.408;8.702;2023-03-23T09:49:40;3.20;;;2.10;;
6902;SDS011;20232;49.408;8.702;2023-03-23T09:52:11;3.13;;;1.97;;
6902;SDS011;20232;49.408;8.702;2023-03-23T09:54:42;3.57;;;2.13;;
6902;SDS011;20232;49.408;8.702;2023-03-23T09:57:30;2.20;;;1.80;;
6902;SDS011;20232;49.408;8.702;2023-03-23T10:00:34;2.20;;;2.00;;
6902;SDS011;20232;49.408;8.702;2023-03-23T10:03:05;2.90;;;1.83;;
6902;SDS011;20232;49.408;8.702;2023-03-23T10:05:54;4.10;;;2.17;;
6902;SDS011;20232;49.408;8.702;2023-03-23T10:08:27;2.23;;;1.77;;
6902;SDS011;20232;49.408;8.702;2023-03-23T15:36:44;3.73;;;2.13;;
6902;SDS011;20232;49.408;8.702;2023-03-23T15:39:12;3.17;;;2.00;;
6902;SDS011;20232;49.408;8.702;2023-03-23T15:41:45;3.17;;;2.20;;
6902;SDS011;20232;49.408;8.702;2023-03-23T15:44:20;3.17;;;2.40;;
6902;SDS011;20232;49.408;8.702;2023-03-23T15:47:16;3.20;;;2.03;;
6902;SDS011;20232;49.408;8.702;2023-03-23T15:49:58;2.93;;;2.00;;
6902;SDS011;20232;49.408;8.702;2023-03-23T15:52:28;2.60;;;1.97;;
